createdAt,value
2024-02-07T00:02:19.574Z,5.99
2024-02-07T00:06:24.066Z,5.99
2024-02-07T00:10:27.231Z,6.01
2024-02-07T00:14:30.267Z,5.98
2024-02-07T00:18:33.392Z,5.99
2024-02-07T00:22:38.027Z,5.97
2024-02-07T00:26:41.127Z,5.92
2024-02-07T00:30:44.232Z,5.87
2024-02-07T00:34:47.389Z,5.81
2024-02-07T00:38:51.780Z,5.76
2024-02-07T00:42:54.833Z,5.70
2024-02-07T00:46:57.903Z,5.65
2024-02-07T00:51:01.029Z,5.65
2024-02-07T00:55:05.904Z,5.66
2024-02-07T00:59:08.941Z,5.66
2024-02-07T01:03:11.984Z,5.66
2024-02-07T01:07:15.107Z,5.66
2024-02-07T01:11:19.570Z,5.59
2024-02-07T01:15:22.627Z,5.56
2024-02-07T01:19:25.943Z,5.58
2024-02-07T01:23:29.030Z,5.60
2024-02-07T01:27:33.378Z,5.61
2024-02-07T01:31:36.458Z,5.63
2024-02-07T01:35:39.460Z,5.66
2024-02-07T01:39:42.487Z,5.72
2024-02-07T01:43:47.266Z,5.75
2024-02-07T01:47:50.691Z,5.74
2024-02-07T01:51:53.781Z,5.74
2024-02-07T01:55:58.038Z,5.73
2024-02-07T02:00:02.657Z,5.73
2024-02-07T02:04:15.097Z,5.69
2024-02-07T02:08:18.238Z,5.66
2024-02-07T02:12:21.387Z,5.66
2024-02-07T02:16:25.798Z,5.68
2024-02-07T02:20:30.236Z,5.69
2024-02-07T02:24:49.668Z,5.69
2024-02-07T02:29:05.880Z,5.68
2024-02-07T02:33:14.101Z,5.76
2024-02-07T02:37:17.375Z,5.73
2024-02-07T02:41:20.910Z,5.70
2024-02-07T02:45:23.963Z,5.67
2024-02-07T02:49:28.413Z,5.68
2024-02-07T02:53:33.980Z,5.66
2024-02-07T02:57:37.468Z,5.66
2024-02-07T03:01:40.572Z,5.66
2024-02-07T03:05:59.301Z,5.64
2024-02-07T03:10:05.872Z,5.68
2024-02-07T03:14:08.917Z,5.64
2024-02-07T03:18:12.838Z,5.59
2024-02-07T03:22:18.792Z,5.57
2024-02-07T03:26:22.215Z,5.55
2024-02-07T03:30:25.457Z,5.54
2024-02-07T03:34:28.614Z,5.56
2024-02-07T03:38:33.048Z,5.54
2024-02-07T03:42:37.469Z,5.53
2024-02-07T03:46:41.431Z,5.55
2024-02-07T03:50:44.615Z,5.57
2024-02-07T03:54:51.970Z,5.58
2024-02-07T03:58:55.082Z,5.55
2024-02-07T04:02:58.689Z,5.57
2024-02-07T04:07:01.925Z,5.60
2024-02-07T04:11:08.958Z,5.66
2024-02-07T04:15:30.007Z,5.70
2024-02-07T04:19:50.539Z,5.72
2024-02-07T04:24:11.097Z,5.75
2024-02-07T04:28:32.764Z,5.78
2024-02-07T04:32:53.127Z,5.81
2024-02-07T04:37:13.532Z,5.83
2024-02-07T04:41:33.808Z,5.83
2024-02-07T04:45:55.926Z,5.83
2024-02-07T04:50:17.139Z,5.87
2024-02-07T04:54:37.814Z,5.90
2024-02-07T04:58:58.316Z,5.95
2024-02-07T05:03:20.242Z,5.90
2024-02-07T05:07:40.690Z,5.91
2024-02-07T05:12:01.009Z,5.89
2024-02-07T05:16:04.077Z,5.87
2024-02-07T05:20:09.518Z,5.88
2024-02-07T05:24:12.646Z,5.85
2024-02-07T05:28:16.189Z,5.81
2024-02-07T05:32:19.731Z,5.76
2024-02-07T05:36:24.166Z,5.73
2024-02-07T05:40:27.417Z,5.73
2024-02-07T05:44:30.511Z,5.73
2024-02-07T05:48:34.229Z,5.74
2024-02-07T05:52:39.739Z,5.75
2024-02-07T05:56:43.098Z,5.74
2024-02-07T06:00:46.171Z,5.75
2024-02-07T06:04:52.354Z,5.78
2024-02-07T06:08:58.639Z,5.80
2024-02-07T06:13:01.711Z,5.80
2024-02-07T06:17:05.009Z,5.81
2024-02-07T06:21:08.239Z,5.84
2024-02-07T06:25:12.793Z,5.86
2024-02-07T06:29:15.781Z,5.87
2024-02-07T06:33:19.059Z,5.87
2024-02-07T06:37:22.226Z,5.84
2024-02-07T06:41:26.689Z,5.85
2024-02-07T06:45:29.723Z,5.88
2024-02-07T06:49:37.447Z,5.90
2024-02-07T06:53:40.490Z,5.91
2024-02-07T06:57:44.983Z,5.89
2024-02-07T07:01:48.508Z,5.90
2024-02-07T07:05:51.665Z,5.90
2024-02-07T07:09:54.706Z,5.91
2024-02-07T07:14:02.492Z,5.92
2024-02-07T07:18:06.761Z,5.94
2024-02-07T07:22:09.884Z,5.97
2024-02-07T07:26:12.921Z,6.00
2024-02-07T07:30:17.706Z,6.05
2024-02-07T07:34:20.868Z,6.06
2024-02-07T07:38:23.956Z,6.10
2024-02-07T07:42:27.002Z,6.16
2024-02-07T07:46:31.495Z,6.23
2024-02-07T07:50:34.631Z,6.26
2024-02-07T07:54:38.469Z,6.30
2024-02-07T07:58:48.934Z,6.32
2024-02-07T08:02:57.059Z,6.37
2024-02-07T08:07:00.062Z,6.40
2024-02-07T08:11:05.082Z,6.43
2024-02-07T08:15:08.684Z,6.46
2024-02-07T08:19:15.813Z,6.49
2024-02-07T08:23:18.945Z,6.50
2024-02-07T08:27:22.075Z,6.50
2024-02-07T08:31:25.194Z,6.50
2024-02-07T08:35:29.822Z,6.50
2024-02-07T08:39:33.060Z,6.51
2024-02-07T08:43:36.072Z,6.53
2024-02-07T08:47:39.127Z,6.57
2024-02-07T08:51:44.206Z,6.60
2024-02-07T08:55:47.269Z,6.62
2024-02-07T08:59:50.266Z,6.65
2024-02-07T09:03:53.346Z,6.68
2024-02-07T09:07:57.800Z,6.73
2024-02-07T09:12:00.833Z,6.77
2024-02-07T09:16:03.877Z,6.82
2024-02-07T09:20:08.469Z,6.85
2024-02-07T09:24:12.993Z,6.91
2024-02-07T09:28:16.050Z,6.95
2024-02-07T09:32:19.691Z,6.99
2024-02-07T09:36:22.780Z,7.05
2024-02-07T09:40:27.325Z,7.11
2024-02-07T09:44:32.745Z,7.16
2024-02-07T09:48:36.219Z,7.21
2024-02-07T09:52:41.392Z,7.26
2024-02-07T09:56:47.331Z,7.30
2024-02-07T10:00:52.604Z,7.36
2024-02-07T10:04:58.272Z,7.38
2024-02-07T10:09:02.395Z,7.37
2024-02-07T10:13:07.378Z,7.42
2024-02-07T10:17:10.672Z,7.45
2024-02-07T10:21:13.748Z,7.49
2024-02-07T10:25:18.646Z,7.52
2024-02-07T10:29:26.279Z,7.54
2024-02-07T10:33:40.933Z,7.55
2024-02-07T10:37:45.690Z,7.56
2024-02-07T10:41:48.778Z,7.55
2024-02-07T10:46:01.369Z,7.55
2024-02-07T10:50:06.329Z,7.54
2024-02-07T10:54:10.691Z,7.54
2024-02-07T10:58:19.071Z,7.55
2024-02-07T11:02:24.675Z,7.62
2024-02-07T11:06:29.160Z,7.69
2024-02-07T11:10:32.984Z,7.83
2024-02-07T11:14:37.428Z,7.94
2024-02-07T11:18:41.847Z,8.08
2024-02-07T11:22:49.284Z,8.24
2024-02-07T11:26:52.486Z,8.49
2024-02-07T11:30:57.453Z,8.73
2024-02-07T11:35:04.459Z,8.86
2024-02-07T11:39:16.052Z,8.91
2024-02-07T11:43:22.602Z,8.98
2024-02-07T11:47:26.199Z,8.98
2024-02-07T11:51:35.225Z,9.02
2024-02-07T11:55:42.900Z,9.03
2024-02-07T11:59:46.438Z,9.07
2024-02-07T12:03:56.610Z,9.10
2024-02-07T12:08:01.483Z,9.10
2024-02-07T12:12:05.141Z,9.15
2024-02-07T12:16:12.682Z,9.23
2024-02-07T12:20:17.256Z,9.27
2024-02-07T12:24:22.962Z,9.33
2024-02-07T12:28:26.871Z,9.34
2024-02-07T12:32:31.006Z,9.36
2024-02-07T12:36:36.324Z,9.39
2024-02-07T12:40:40.758Z,9.42
2024-02-07T12:44:44.032Z,9.52
2024-02-07T12:48:47.510Z,9.54
2024-02-07T12:52:50.948Z,9.56
2024-02-07T12:56:55.853Z,9.55
2024-02-07T13:01:03.069Z,9.60
2024-02-07T13:05:07.441Z,9.77
2024-02-07T13:09:10.472Z,9.84
2024-02-07T13:13:14.947Z,9.90
2024-02-07T13:17:18.000Z,9.90
2024-02-07T13:21:21.090Z,9.94
2024-02-07T13:25:25.443Z,10.01
2024-02-07T13:29:30.043Z,10.03
2024-02-07T13:33:33.190Z,10.01
2024-02-07T13:37:36.228Z,10.01
2024-02-07T13:41:39.253Z,9.98
2024-02-07T13:45:43.692Z,9.99
2024-02-07T13:49:46.874Z,10.00
2024-02-07T13:53:50.046Z,10.02
2024-02-07T13:57:53.014Z,10.01
2024-02-07T14:01:57.544Z,10.03
2024-02-07T14:06:03.524Z,10.04
2024-02-07T14:10:06.895Z,10.06
2024-02-07T14:14:10.327Z,10.10
2024-02-07T14:18:14.860Z,10.17
2024-02-07T14:22:18.092Z,10.32
2024-02-07T14:26:21.438Z,10.39
2024-02-07T14:30:28.116Z,10.39
2024-02-07T14:34:32.714Z,10.36
2024-02-07T14:38:36.917Z,10.32
2024-02-07T14:42:39.936Z,10.33
2024-02-07T14:46:42.979Z,10.35
2024-02-07T14:50:47.537Z,10.40
2024-02-07T14:54:50.969Z,10.47
2024-02-07T14:58:54.033Z,10.48
2024-02-07T15:02:57.037Z,10.52
2024-02-07T15:07:01.527Z,10.55
2024-02-07T15:11:05.696Z,10.51
2024-02-07T15:15:09.485Z,10.54
2024-02-07T15:19:12.536Z,10.63
2024-02-07T15:23:17.659Z,10.61
2024-02-07T15:27:20.626Z,10.57
2024-02-07T15:31:23.644Z,10.56
2024-02-07T15:35:26.726Z,10.53
2024-02-07T15:39:31.527Z,10.51
2024-02-07T15:43:35.306Z,10.47
2024-02-07T15:47:38.384Z,10.44
2024-02-07T15:51:41.391Z,10.42
2024-02-07T15:55:45.824Z,10.47
2024-02-07T15:59:48.802Z,10.50
2024-02-07T16:03:52.159Z,10.51
2024-02-07T16:07:55.367Z,10.52
2024-02-07T16:11:59.836Z,10.56
2024-02-07T16:16:02.906Z,10.53
2024-02-07T16:20:09.396Z,10.60
2024-02-07T16:24:12.564Z,10.61
2024-02-07T16:28:16.933Z,10.61
2024-02-07T16:32:20.083Z,10.54
2024-02-07T16:36:23.116Z,10.49
2024-02-07T16:40:27.348Z,10.49
2024-02-07T16:44:32.023Z,10.46
2024-02-07T16:48:35.139Z,10.41
2024-02-07T16:52:38.259Z,10.37
2024-02-07T16:56:41.646Z,10.33
2024-02-07T17:00:47.500Z,10.29
2024-02-07T17:04:50.685Z,10.28
2024-02-07T17:08:53.892Z,10.21
2024-02-07T17:12:57.150Z,10.20
2024-02-07T17:17:03.477Z,10.16
2024-02-07T17:21:07.479Z,10.12
2024-02-07T17:25:11.930Z,10.06
2024-02-07T17:29:14.903Z,10.02
2024-02-07T17:33:19.661Z,9.97
2024-02-07T17:37:22.828Z,9.93
2024-02-07T17:41:25.896Z,9.88
2024-02-07T17:45:29.045Z,9.85
2024-02-07T17:49:33.404Z,9.81
2024-02-07T17:53:36.525Z,9.84
2024-02-07T17:57:39.505Z,9.84
2024-02-07T18:01:42.569Z,9.78
2024-02-07T18:05:47.077Z,9.76
2024-02-07T18:09:50.297Z,9.74
2024-02-07T18:13:54.198Z,9.69
2024-02-07T18:17:57.207Z,9.69
2024-02-07T18:27:18.704Z,9.59
2024-02-07T18:31:24.172Z,9.50
2024-02-07T18:35:29.418Z,9.44
2024-02-07T18:39:33.777Z,9.36
2024-02-07T18:43:36.852Z,9.32
2024-02-07T18:47:40.074Z,9.28
2024-02-07T18:51:43.167Z,9.26
2024-02-07T18:55:47.507Z,9.24
2024-02-07T18:59:50.577Z,9.22
2024-02-07T19:03:53.493Z,9.23
2024-02-07T19:07:56.817Z,9.19
2024-02-07T19:12:01.498Z,9.16
2024-02-07T19:16:04.807Z,9.13
2024-02-07T19:20:09.390Z,9.10
2024-02-07T19:24:18.515Z,9.06
2024-02-07T19:28:22.730Z,9.05
2024-02-07T19:32:26.111Z,9.02
2024-02-07T19:36:29.090Z,9.01
2024-02-07T19:40:36.243Z,8.99
2024-02-07T19:44:40.668Z,8.95
2024-02-07T19:48:43.972Z,8.93
2024-02-07T19:52:46.963Z,8.92
2024-02-07T19:56:50.210Z,8.92
2024-02-07T20:00:54.577Z,8.90
2024-02-07T20:04:57.595Z,8.90
2024-02-07T20:09:00.812Z,8.89
2024-02-07T20:13:03.717Z,8.87
2024-02-07T20:17:09.276Z,8.85
2024-02-07T20:21:12.943Z,8.86
2024-02-07T20:25:17.052Z,8.85
2024-02-07T20:29:20.332Z,8.82
2024-02-07T20:33:24.874Z,8.79
2024-02-07T20:37:28.357Z,8.73
2024-02-07T20:41:40.509Z,8.72
2024-02-07T20:45:43.918Z,8.69
2024-02-07T20:49:48.628Z,8.65
2024-02-07T20:53:55.089Z,8.58
2024-02-07T20:57:58.329Z,8.59
2024-02-07T21:02:01.752Z,8.54
2024-02-07T21:06:06.938Z,8.53
2024-02-07T21:10:10.601Z,8.51
2024-02-07T21:14:15.008Z,8.50
2024-02-07T21:18:18.525Z,8.51
2024-02-07T21:22:23.487Z,8.48
2024-02-07T21:26:26.648Z,8.47
2024-02-07T21:30:29.836Z,8.45
2024-02-07T21:34:33.130Z,8.44
2024-02-07T21:38:37.863Z,8.42
2024-02-07T21:42:41.289Z,8.40
2024-02-07T21:46:44.788Z,8.40
2024-02-07T21:50:48.243Z,8.35
2024-02-07T21:54:53.099Z,8.32
2024-02-07T21:58:56.292Z,8.29
2024-02-07T22:02:59.524Z,8.27
2024-02-07T22:07:03.113Z,8.22
2024-02-07T22:11:08.258Z,8.21
2024-02-07T22:15:11.968Z,8.18
2024-02-07T22:19:15.720Z,8.17
2024-02-07T22:23:18.952Z,8.13
2024-02-07T22:27:23.831Z,8.12
2024-02-07T22:31:30.857Z,8.10
2024-02-07T22:35:36.099Z,8.04
2024-02-07T22:39:39.365Z,8.01
2024-02-07T22:43:43.936Z,8.01
2024-02-07T22:47:47.268Z,7.98
2024-02-07T22:51:53.363Z,7.97
2024-02-07T22:56:00.189Z,8.00
2024-02-07T23:00:08.206Z,7.97
2024-02-07T23:04:16.634Z,7.98
2024-02-07T23:08:20.345Z,7.97
2024-02-07T23:12:23.739Z,7.97
2024-02-07T23:16:28.396Z,7.96
2024-02-07T23:20:31.738Z,7.96
2024-02-07T23:24:35.257Z,7.96
2024-02-07T23:28:43.887Z,7.95
2024-02-07T23:32:49.834Z,7.90
2024-02-07T23:36:53.476Z,7.91
2024-02-07T23:40:57.075Z,7.89
2024-02-07T23:45:07.427Z,7.88
2024-02-07T23:49:14.616Z,7.88
2024-02-07T23:53:23.056Z,7.87
2024-02-07T23:57:28.459Z,7.89
